createdAt,value
2022-11-03T00:03:27.313Z,12.98
2022-11-03T00:08:28.953Z,10.40
2022-11-03T00:13:30.775Z,14.43
2022-11-03T00:18:32.894Z,14.43
2022-11-03T00:23:37.125Z,16.88
2022-11-03T00:28:40.488Z,17.77
2022-11-03T00:33:43.075Z,13.48
2022-11-03T00:38:45.616Z,18.25
2022-11-03T00:43:48.226Z,9.93
2022-11-03T00:48:50.773Z,11.50
2022-11-03T00:53:53.737Z,14.13
2022-11-03T00:58:57.395Z,10.63
2022-11-03T01:04:17.906Z,12.13
2022-11-03T01:09:22.488Z,14.27
2022-11-03T01:14:26.309Z,9.73
2022-11-03T01:19:28.209Z,13.73
2022-11-03T01:24:29.847Z,13.52
2022-11-03T01:29:31.514Z,10.88
2022-11-03T01:34:33.262Z,11.15
2022-11-03T01:39:34.868Z,9.43
2022-11-03T01:44:47.643Z,12.02
2022-11-03T01:50:07.567Z,17.20
2022-11-03T01:55:13.826Z,11.57
2022-11-03T02:00:15.966Z,13.48
2022-11-03T02:05:19.221Z,14.30
2022-11-03T02:10:21.518Z,12.35
2022-11-03T02:15:24.053Z,14.15
2022-11-03T02:20:28.690Z,12.35
2022-11-03T02:25:47.474Z,21.42
2022-11-03T02:30:49.017Z,14.57
2022-11-03T02:36:03.738Z,27.33
2022-11-03T02:41:08.885Z,22.42
2022-11-03T02:46:13.655Z,14.25
2022-11-03T02:51:15.401Z,13.85
2022-11-03T02:56:24.811Z,11.18
2022-11-03T03:01:47.478Z,46.25
2022-11-03T03:06:55.805Z,26.90
2022-11-03T03:11:59.138Z,27.08
2022-11-03T03:17:05.275Z,96.63
2022-11-03T03:22:21.799Z,187.88
2022-11-03T03:27:27.615Z,54.53
2022-11-03T03:32:34.016Z,34.00
2022-11-03T03:37:38.217Z,19.38
2022-11-03T03:42:41.857Z,86.15
2022-11-03T03:47:43.841Z,9.00
2022-11-03T03:52:45.451Z,8.27
2022-11-03T03:57:47.069Z,7.88
2022-11-03T04:02:48.741Z,9.93
2022-11-03T04:07:50.483Z,39.85
2022-11-03T04:13:10.621Z,80.22
2022-11-03T04:18:31.154Z,161.45
2022-11-03T04:23:32.770Z,115.13
2022-11-03T04:28:34.507Z,159.00
2022-11-03T04:33:36.160Z,187.65
2022-11-03T04:38:38.096Z,252.10
2022-11-03T04:43:39.769Z,94.32
2022-11-03T04:48:41.854Z,178.68
2022-11-03T04:54:18.505Z,159.63
2022-11-03T04:59:20.144Z,79.50
2022-11-03T05:04:21.817Z,105.05
2022-11-03T05:09:28.987Z,14.10
2022-11-03T05:14:32.275Z,14.35
2022-11-03T05:19:40.242Z,63.80
2022-11-03T05:24:42.528Z,140.80
2022-11-03T05:29:44.636Z,272.67
2022-11-03T05:34:48.450Z,37.30
2022-11-03T05:39:51.273Z,254.20
2022-11-03T05:44:52.896Z,209.27
2022-11-03T05:50:01.973Z,38.38
2022-11-03T05:55:04.110Z,11.63
2022-11-03T06:00:21.857Z,6.78
2022-11-03T06:05:25.796Z,31.33
2022-11-03T06:10:31.577Z,25.42
2022-11-03T06:15:37.040Z,80.43
2022-11-03T06:20:39.607Z,36.05
2022-11-03T06:25:43.405Z,81.72
2022-11-03T06:30:46.347Z,10.07
2022-11-03T06:35:51.029Z,5.55
2022-11-03T06:40:53.645Z,8.30
2022-11-03T06:45:58.704Z,7.60
2022-11-03T06:51:01.199Z,9.52
2022-11-03T06:56:02.953Z,8.88
2022-11-03T07:01:14.971Z,6.82
2022-11-03T07:06:24.743Z,8.95
2022-11-03T07:11:28.430Z,6.75
2022-11-03T07:16:35.524Z,7.07
2022-11-03T07:21:48.600Z,9.18
2022-11-03T07:27:00.085Z,11.85
2022-11-03T07:32:02.369Z,8.40
2022-11-03T07:37:04.077Z,6.95
2022-11-03T07:42:15.474Z,8.82
2022-11-03T07:47:26.398Z,11.30
2022-11-03T07:52:28.097Z,16.55
2022-11-03T07:57:31.577Z,11.75
2022-11-03T08:02:36.682Z,8.60
2022-11-03T08:07:38.411Z,10.60
2022-11-03T08:12:40.033Z,11.90
2022-11-03T08:17:41.710Z,10.68
2022-11-03T08:22:49.848Z,15.13
2022-11-03T08:28:05.276Z,10.68
2022-11-03T08:33:07.200Z,19.13
2022-11-03T08:38:09.372Z,14.77
2022-11-03T08:43:11.237Z,15.70
2022-11-03T08:48:13.834Z,11.20
2022-11-03T08:53:15.576Z,14.48
2022-11-03T08:58:17.225Z,12.32
2022-11-03T09:03:18.885Z,14.13
2022-11-03T09:13:42.172Z,17.40
2022-11-03T09:18:43.928Z,19.58
2022-11-03T09:23:45.536Z,18.05
2022-11-03T09:28:47.595Z,18.23
2022-11-03T09:33:49.201Z,17.95
2022-11-03T09:38:51.139Z,20.63
2022-11-03T09:43:54.444Z,19.77
2022-11-03T09:48:56.778Z,19.02
2022-11-03T09:54:03.676Z,21.00
2022-11-03T09:59:17.275Z,19.02
2022-11-03T10:04:29.285Z,15.40
2022-11-03T10:09:30.920Z,18.90
2022-11-03T10:14:32.576Z,20.85
2022-11-03T10:19:34.203Z,18.92
2022-11-03T10:24:36.037Z,24.95
2022-11-03T10:29:39.919Z,20.48
2022-11-03T10:34:42.944Z,18.27
2022-11-03T10:39:45.452Z,19.33
2022-11-03T10:44:47.923Z,20.92
2022-11-03T10:49:49.629Z,19.50
2022-11-03T10:54:53.681Z,17.90
2022-11-03T10:59:56.071Z,18.05
2022-11-03T11:05:03.109Z,18.85
2022-11-03T11:10:13.469Z,21.05
2022-11-03T11:15:50.247Z,21.50
2022-11-03T11:20:51.875Z,20.23
2022-11-03T11:26:11.864Z,17.38
2022-11-03T11:31:22.863Z,15.48
2022-11-03T11:36:25.581Z,16.73
2022-11-03T11:42:05.161Z,21.55
2022-11-03T11:47:27.933Z,19.85
2022-11-03T11:52:30.436Z,16.17
2022-11-03T11:57:35.089Z,18.08
2022-11-03T12:02:36.735Z,13.80
2022-11-03T12:07:39.566Z,18.83
2022-11-03T12:12:41.254Z,17.83
2022-11-03T12:17:42.939Z,11.57
2022-11-03T12:22:44.703Z,11.07
2022-11-03T12:27:46.360Z,13.25
2022-11-03T12:32:48.087Z,15.00
2022-11-03T12:37:49.712Z,15.02
2022-11-03T12:42:51.402Z,16.02
2022-11-03T12:47:53.015Z,14.68
2022-11-03T12:52:54.724Z,15.27
2022-11-03T12:57:56.392Z,15.90
2022-11-03T13:02:58.163Z,14.05
2022-11-03T13:07:59.795Z,13.13
2022-11-03T13:13:01.449Z,16.63
2022-11-03T13:18:14.325Z,16.83
2022-11-03T13:23:18.779Z,13.32
2022-11-03T13:28:23.629Z,13.00
2022-11-03T13:33:25.253Z,15.93
2022-11-03T13:38:26.871Z,20.95
2022-11-03T13:43:29.155Z,13.82
2022-11-03T13:49:33.983Z,14.85
2022-11-03T13:59:30.064Z,14.82
2022-11-03T14:04:47.495Z,14.98
2022-11-03T14:09:49.119Z,15.65
2022-11-03T14:14:50.730Z,15.82
2022-11-03T14:19:55.554Z,15.52
2022-11-03T14:25:01.431Z,15.65
2022-11-03T14:30:04.606Z,13.80
2022-11-03T14:35:07.687Z,18.02
2022-11-03T14:40:30.338Z,13.48
2022-11-03T14:45:32.017Z,14.95
2022-11-03T14:50:33.704Z,14.82
2022-11-03T14:55:35.331Z,10.85
2022-11-03T15:00:36.978Z,13.18
2022-11-03T15:05:44.539Z,11.95
2022-11-03T15:10:46.501Z,13.98
2022-11-03T15:15:48.131Z,16.48
2022-11-03T15:20:49.990Z,15.93
2022-11-03T15:25:51.611Z,13.32
2022-11-03T15:30:53.238Z,15.85
2022-11-03T15:35:54.963Z,19.25
2022-11-03T15:41:15.459Z,17.63
2022-11-03T15:46:18.388Z,16.97
2022-11-03T15:51:20.077Z,22.23
2022-11-03T15:56:21.691Z,17.15
2022-11-03T16:01:23.603Z,17.20
2022-11-03T16:06:46.475Z,20.65
2022-11-03T16:11:47.023Z,20.30
2022-11-03T16:16:48.865Z,20.70
2022-11-03T16:21:51.724Z,18.90
2022-11-03T16:26:53.484Z,26.05
2022-11-03T16:31:55.251Z,31.92
2022-11-03T16:36:58.145Z,24.73
2022-11-03T16:42:02.900Z,32.17
2022-11-03T16:47:05.600Z,29.17
2022-11-03T16:52:09.140Z,23.83
2022-11-03T16:57:12.359Z,29.98
2022-11-03T17:02:16.528Z,29.77
2022-11-03T17:07:19.739Z,32.72
2022-11-03T17:12:21.583Z,34.55
2022-11-03T17:17:23.178Z,30.58
2022-11-03T17:22:24.906Z,31.65
2022-11-03T17:27:38.643Z,26.17
2022-11-03T17:32:44.379Z,18.80
2022-11-03T17:37:46.068Z,18.50
2022-11-03T17:42:49.423Z,16.60
2022-11-03T17:47:51.897Z,27.20
2022-11-03T17:52:54.153Z,30.45
2022-11-03T17:57:59.185Z,28.05
2022-11-03T18:03:01.511Z,24.48
2022-11-03T18:08:08.399Z,25.02
2022-11-03T18:13:16.683Z,23.15
2022-11-03T18:18:20.697Z,17.23
2022-11-03T18:23:27.053Z,23.00
2022-11-03T18:28:29.189Z,26.65
2022-11-03T18:33:36.494Z,27.30
2022-11-03T18:38:41.376Z,23.40
2022-11-03T18:43:43.298Z,27.85
2022-11-03T18:48:45.047Z,21.80
2022-11-03T18:53:46.805Z,26.20
2022-11-03T18:58:52.671Z,51.50
2022-11-03T19:03:54.515Z,31.38
2022-11-03T19:09:00.041Z,17.30
2022-11-03T19:14:01.886Z,34.45
2022-11-03T19:19:03.762Z,28.70
2022-11-03T19:24:05.566Z,17.90
2022-11-03T19:29:13.295Z,16.02
2022-11-03T19:34:18.583Z,18.48
2022-11-03T19:39:23.462Z,19.17
2022-11-03T19:44:25.193Z,20.52
2022-11-03T19:49:27.216Z,15.23
2022-11-03T19:54:29.447Z,13.55
2022-11-03T19:59:31.448Z,15.95
2022-11-03T20:04:33.065Z,16.52
2022-11-03T20:09:36.360Z,15.10
2022-11-03T20:14:38.720Z,13.20
2022-11-03T20:19:43.829Z,12.50
2022-11-03T20:24:50.346Z,13.23
2022-11-03T20:29:52.671Z,14.07
2022-11-03T20:34:56.134Z,11.70
2022-11-03T20:39:58.473Z,13.52
2022-11-03T20:45:00.416Z,16.02
2022-11-03T20:50:02.036Z,19.25
2022-11-03T20:55:22.428Z,25.30
2022-11-03T21:00:29.471Z,20.33
2022-11-03T21:05:31.876Z,29.73
2022-11-03T21:10:33.541Z,15.00
2022-11-03T21:16:22.544Z,11.40
2022-11-03T21:21:20.713Z,16.45
2022-11-03T21:26:23.054Z,14.90
2022-11-03T21:31:24.659Z,16.88
2022-11-03T21:36:26.295Z,17.20
2022-11-03T21:41:46.520Z,15.65
2022-11-03T21:46:49.174Z,28.50
2022-11-03T21:51:50.815Z,11.32
2022-11-03T21:56:52.605Z,7.95
2022-11-03T22:01:55.246Z,9.93
2022-11-03T22:06:58.712Z,7.78
2022-11-03T22:12:00.981Z,9.10
2022-11-03T22:17:02.614Z,14.95
2022-11-03T22:22:31.651Z,15.25
2022-11-03T22:27:34.589Z,7.07
2022-11-03T22:32:37.009Z,8.88
2022-11-03T22:42:58.100Z,7.22
2022-11-03T22:47:59.691Z,6.20
2022-11-03T22:53:21.287Z,6.13
2022-11-03T22:58:27.840Z,6.93
2022-11-03T23:03:34.311Z,5.28
2022-11-03T23:08:37.910Z,5.13
2022-11-03T23:13:39.539Z,5.43
2022-11-03T23:19:00.538Z,5.75
2022-11-03T23:24:21.471Z,5.93
2022-11-03T23:29:23.073Z,5.03
2022-11-03T23:34:25.191Z,4.15
2022-11-03T23:39:26.795Z,7.20
2022-11-03T23:44:48.377Z,3.35
2022-11-03T23:49:49.973Z,4.05
2022-11-03T23:54:51.660Z,4.47
2022-11-03T23:59:53.286Z,3.78
